Time;durP1;ratioP1;P1;durP2;ratioP2;P2;SDS_P1;SDS_P2;PMS_P1;PMS_P2;Temp;Humidity;BMP_temperature;BMP_pressure;BME280_temperature;BME280_humidity;BME280_pressure;Samples;Min_cycle;Max_cycle;Signal;HPM_P1;HPM_P2
2022/11/07 00:01:51;;;;;;;3.20;2.90;;;19.00;50.50;;;;;;5131928;27;20455;-82
2022/11/07 00:04:19;;;;;;;3.20;2.97;;;19.00;50.50;;;;;;5134275;27;20470;-82
2022/11/07 00:06:47;;;;;;;3.33;2.80;;;19.10;50.60;;;;;;5114025;28;20452;-82
2022/11/07 00:09:15;;;;;;;3.73;3.10;;;19.10;50.60;;;;;;5128575;28;20443;-82
2022/11/07 00:11:43;;;;;;;5.70;2.83;;;19.10;50.70;;;;;;5127743;28;20633;-81
2022/11/07 00:14:12;;;;;;;5.03;3.40;;;19.10;50.80;;;;;;5133508;27;20464;-83
2022/11/07 00:16:41;;;;;;;4.80;3.70;;;19.10;51.40;;;;;;5144074;28;20445;-83
2022/11/07 00:19:09;;;;;;;5.80;3.00;;;19.10;50.70;;;;;;5127122;28;20443;-82
2022/11/07 00:21:38;;;;;;;5.23;2.93;;;19.00;50.80;;;;;;5124779;28;20455;-82
2022/11/07 00:24:07;;;;;;;7.70;2.93;;;19.00;51.00;;;;;;5124070;28;20469;-82
2022/11/07 00:26:35;;;;;;;4.37;2.97;;;19.10;50.90;;;;;;5124015;28;20444;-82
2022/11/07 00:29:03;;;;;;;3.57;3.23;;;19.00;51.00;;;;;;5130237;28;20534;-83
2022/11/07 00:31:31;;;;;;;5.03;3.37;;;19.10;51.10;;;;;;5125098;28;20470;-84
2022/11/07 00:34:01;;;;;;;3.37;2.73;;;19.10;51.00;;;;;;5107440;28;20461;-84
2022/11/07 00:36:29;;;;;;;3.93;3.00;;;19.10;51.00;;;;;;5107045;28;20447;-83
2022/11/07 00:38:57;;;;;;;4.37;3.43;;;19.10;51.20;;;;;;5121831;28;20469;-83
2022/11/07 00:41:25;;;;;;;3.10;2.80;;;19.10;51.20;;;;;;5136386;28;20448;-82
2022/11/07 00:43:53;;;;;;;4.70;3.17;;;19.10;51.10;;;;;;5126227;27;20474;-82
2022/11/07 00:46:21;;;;;;;4.70;3.03;;;19.10;51.20;;;;;;5122389;28;20455;-83
2022/11/07 00:48:49;;;;;;;3.27;2.63;;;19.10;51.20;;;;;;5121955;28;20448;-82
2022/11/07 00:51:20;;;;;;;5.53;3.27;;;19.10;51.20;;;;;;5137177;28;20466;-82
2022/11/07 00:53:48;;;;;;;7.73;4.33;;;19.10;51.30;;;;;;5143712;27;20471;-83
2022/11/07 00:56:16;;;;;;;6.43;4.27;;;19.10;51.40;;;;;;5133903;27;20442;-81
2022/11/07 00:58:44;;;;;;;6.90;4.63;;;19.10;52.00;;;;;;5122407;27;20445;-82
2022/11/07 01:01:14;;;;;;;6.30;4.63;;;19.10;51.40;;;;;;5125706;27;20448;-82
2022/11/07 01:06:29;;;;;;;5.70;4.30;;;19.10;51.50;;;;;;5117006;28;20420;-83
2022/11/07 01:08:57;;;;;;;6.07;4.70;;;19.10;51.40;;;;;;5131302;27;20451;-80
2022/11/07 01:11:25;;;;;;;6.03;4.70;;;19.10;51.50;;;;;;5121714;28;20476;-84
2022/11/07 01:13:54;;;;;;;6.70;4.30;;;19.20;51.60;;;;;;5126655;28;20490;-85
2022/11/07 01:16:22;;;;;;;6.30;4.90;;;19.10;51.60;;;;;;5129014;28;20435;-85
2022/11/07 01:18:50;;;;;;;7.27;4.80;;;19.10;51.50;;;;;;5128888;28;20440;-85
2022/11/07 01:21:18;;;;;;;8.87;4.10;;;19.10;51.60;;;;;;5127807;28;20451;-86
2022/11/07 01:23:48;;;;;;;3.80;3.50;;;19.10;51.60;;;;;;5127733;28;20471;-84
2022/11/07 01:26:16;;;;;;;6.50;3.90;;;19.10;51.60;;;;;;5128539;28;20462;-83
2022/11/07 01:28:44;;;;;;;4.90;4.20;;;19.10;51.60;;;;;;5129173;28;20458;-82
2022/11/07 01:31:14;;;;;;;5.13;4.17;;;19.10;51.60;;;;;;5136354;27;20480;-84
2022/11/07 01:33:42;;;;;;;4.47;4.03;;;19.10;51.60;;;;;;5135492;27;20460;-84
2022/11/07 01:36:11;;;;;;;5.80;4.17;;;19.20;51.80;;;;;;5118824;28;20445;-83
2022/11/07 01:38:40;;;;;;;5.07;3.57;;;19.10;51.70;;;;;;5132891;27;20451;-83
2022/11/07 01:41:24;;;;;;;5.20;3.63;;;19.10;51.80;;;;;;5122746;27;20455;-84
2022/11/07 01:43:57;;;;;;;4.63;3.53;;;19.20;51.80;;;;;;5113864;28;20523;-82
2022/11/07 01:46:28;;;;;;;4.40;3.63;;;19.10;51.90;;;;;;5130088;28;20439;-85
2022/11/07 01:48:59;;;;;;;5.50;3.40;;;19.10;51.90;;;;;;5130866;28;20442;-84
2022/11/07 01:51:28;;;;;;;4.20;3.87;;;19.10;51.90;;;;;;5127010;27;20464;-85
2022/11/07 01:53:56;;;;;;;4.47;3.37;;;19.10;51.90;;;;;;5123333;27;20981;-84
2022/11/07 01:56:26;;;;;;;6.40;3.40;;;19.10;52.00;;;;;;5142111;27;20424;-85
2022/11/07 01:58:54;;;;;;;6.93;3.97;;;19.10;51.90;;;;;;5133340;27;20448;-85
2022/11/07 02:01:22;;;;;;;3.20;2.90;;;19.10;52.10;;;;;;5144966;27;20439;-85
2022/11/07 02:03:50;;;;;;;3.73;3.43;;;19.20;52.10;;;;;;5135896;27;20491;-83
2022/11/07 02:06:21;;;;;;;6.90;2.80;;;19.20;52.20;;;;;;5125809;28;20452;-84
2022/11/07 02:08:49;;;;;;;3.60;3.03;;;19.10;52.00;;;;;;5131390;27;20459;-83
2022/11/07 02:11:18;;;;;;;6.10;3.43;;;19.20;52.30;;;;;;5141091;27;20463;-85
2022/11/07 02:13:47;;;;;;;3.67;3.17;;;19.10;52.00;;;;;;5134372;27;20471;-86
2022/11/07 02:16:15;;;;;;;3.30;3.00;;;19.20;52.30;;;;;;5129671;27;20447;-84
2022/11/07 02:18:43;;;;;;;3.53;2.80;;;19.20;52.30;;;;;;5131065;27;20427;-84
2022/11/07 02:21:21;;;;;;;3.10;2.80;;;19.10;52.20;;;;;;5123337;28;20444;-85
2022/11/07 02:23:51;;;;;;;3.60;3.17;;;19.20;52.30;;;;;;5122185;27;20476;-85
2022/11/07 02:26:20;;;;;;;2.90;2.70;;;19.20;52.20;;;;;;5129928;27;20440;-84
2022/11/07 02:28:48;;;;;;;5.13;3.07;;;19.20;52.40;;;;;;5138668;27;20452;-84
2022/11/07 02:31:16;;;;;;;2.70;2.50;;;19.20;52.80;;;;;;5130095;27;20456;-84
2022/11/07 02:33:44;;;;;;;5.43;2.63;;;19.20;52.20;;;;;;5125563;27;20474;-86
2022/11/07 02:36:13;;;;;;;4.00;2.73;;;19.20;52.40;;;;;;5139425;27;20443;-85
2022/11/07 02:38:41;;;;;;;3.73;2.63;;;19.20;52.40;;;;;;5129560;27;20440;-85
2022/11/07 02:41:11;;;;;;;4.00;2.87;;;19.20;52.40;;;;;;5125732;27;20474;-84
2022/11/07 02:43:42;;;;;;;2.93;2.60;;;19.20;52.50;;;;;;5136167;27;20467;-83
2022/11/07 02:46:11;;;;;;;6.13;2.57;;;19.20;52.80;;;;;;5127952;27;20524;-83
2022/11/07 02:48:41;;;;;;;3.83;2.40;;;19.20;52.50;;;;;;5133035;27;20452;-85
2022/11/07 02:51:09;;;;;;;4.80;2.83;;;19.20;52.40;;;;;;5138770;27;20451;-85
2022/11/07 02:53:37;;;;;;;4.77;2.60;;;19.20;52.40;;;;;;5125590;27;20471;-86
2022/11/07 02:56:06;;;;;;;4.03;2.50;;;19.20;52.60;;;;;;5133414;27;20474;-85
2022/11/07 02:58:34;;;;;;;5.73;2.13;;;19.20;52.60;;;;;;5134850;27;20477;-84
2022/11/07 03:01:05;;;;;;;3.10;2.57;;;19.20;52.60;;;;;;5129658;28;20457;-85
2022/11/07 03:03:34;;;;;;;3.33;2.50;;;19.20;52.50;;;;;;5131102;27;20482;-84
2022/11/07 03:06:02;;;;;;;3.47;2.50;;;19.20;52.70;;;;;;5136133;27;20446;-85
2022/11/07 03:08:30;;;;;;;3.10;2.20;;;19.20;52.60;;;;;;5124114;27;20451;-83
2022/11/07 03:10:58;;;;;;;2.80;2.60;;;19.20;52.70;;;;;;5139824;27;20466;-84
2022/11/07 03:13:26;;;;;;;4.10;2.43;;;19.30;52.70;;;;;;5122235;27;20476;-85
2022/11/07 03:15:54;;;;;;;2.60;2.40;;;19.20;52.60;;;;;;5134075;27;20446;-83
2022/11/07 03:18:24;;;;;;;2.63;2.43;;;19.20;52.60;;;;;;5122573;28;20510;-85
2022/11/07 03:20:52;;;;;;;4.50;2.07;;;19.20;52.70;;;;;;5134219;27;20454;-85
2022/11/07 03:23:20;;;;;;;4.83;2.70;;;19.20;52.70;;;;;;5143337;27;20472;-85
2022/11/07 03:25:48;;;;;;;2.70;2.50;;;19.20;52.70;;;;;;5124811;27;20475;-84
2022/11/07 03:28:17;;;;;;;3.97;2.40;;;19.20;52.80;;;;;;5121069;28;20460;-84
2022/11/07 03:30:45;;;;;;;4.07;2.70;;;19.20;52.80;;;;;;5113005;28;20451;-85
2022/11/07 03:33:13;;;;;;;5.77;2.30;;;19.20;52.80;;;;;;5124100;27;20476;-85
2022/11/07 03:35:43;;;;;;;3.90;2.43;;;19.20;52.90;;;;;;5137095;27;20452;-85
2022/11/07 03:38:11;;;;;;;5.20;3.07;;;19.20;52.90;;;;;;5129569;27;20462;-84
2022/11/07 03:40:39;;;;;;;3.80;2.60;;;19.20;52.90;;;;;;5131778;27;20446;-84
2022/11/07 03:43:07;;;;;;;7.33;2.13;;;19.20;52.90;;;;;;5123502;27;20459;-85
2022/11/07 03:45:35;;;;;;;4.80;2.17;;;19.20;52.90;;;;;;5126808;27;20443;-85
2022/11/07 03:48:03;;;;;;;3.70;2.43;;;19.20;53.00;;;;;;5120664;27;20435;-85
2022/11/07 03:50:31;;;;;;;3.33;2.00;;;19.20;52.90;;;;;;5103210;28;20440;-85
2022/11/07 03:53:01;;;;;;;2.53;2.30;;;19.20;53.10;;;;;;5119612;28;20470;-85
2022/11/07 03:55:29;;;;;;;4.50;2.47;;;19.20;53.00;;;;;;5124568;27;20450;-85
2022/11/07 03:57:57;;;;;;;3.43;1.93;;;19.20;52.90;;;;;;5120859;27;20467;-85
2022/11/07 04:00:25;;;;;;;4.23;2.20;;;19.20;53.10;;;;;;5112300;27;20453;-86
2022/11/07 04:02:54;;;;;;;4.20;2.30;;;19.20;53.20;;;;;;5120711;27;20436;-85
2022/11/07 04:05:22;;;;;;;2.70;2.10;;;19.20;53.10;;;;;;5118026;28;20516;-84
2022/11/07 04:07:50;;;;;;;2.70;2.30;;;19.20;53.20;;;;;;5111542;28;20440;-85
2022/11/07 04:10:20;;;;;;;4.40;2.20;;;19.20;53.10;;;;;;5124544;28;20464;-87
2022/11/07 04:18:19;;;;;;;3.87;2.30;;;19.20;53.10;;;;;;5090191;28;20452;-85
2022/11/07 04:20:47;;;;;;;2.90;2.20;;;19.20;53.30;;;;;;5122324;28;20448;-85
2022/11/07 04:23:15;;;;;;;6.33;2.13;;;19.20;53.20;;;;;;5123788;28;20478;-85
2022/11/07 04:28:31;;;;;;;5.10;2.10;;;19.20;53.30;;;;;;5131093;28;20439;-84
2022/11/07 04:30:59;;;;;;;5.97;2.57;;;19.20;53.40;;;;;;5122010;28;20848;-85
2022/11/07 04:33:27;;;;;;;2.30;2.10;;;19.20;53.50;;;;;;5127604;27;20471;-85
2022/11/07 04:35:55;;;;;;;5.20;2.03;;;19.20;53.50;;;;;;5124314;27;20448;-85
2022/11/07 04:38:23;;;;;;;2.40;2.20;;;19.20;53.40;;;;;;5126553;27;20450;-85
2022/11/07 04:40:56;;;;;;;3.73;1.87;;;19.20;53.30;;;;;;5123674;27;20455;-84
2022/11/07 04:43:24;;;;;;;6.07;2.70;;;19.20;53.30;;;;;;5129289;27;20472;-87
2022/11/07 04:45:53;;;;;;;6.93;2.50;;;19.20;53.40;;;;;;5122644;27;20442;-86
2022/11/07 04:48:20;;;;;;;6.13;2.40;;;19.30;53.50;;;;;;5132021;27;20443;-85
2022/11/07 04:50:49;;;;;;;5.20;2.50;;;19.30;53.40;;;;;;5129552;27;20447;-85
2022/11/07 04:53:18;;;;;;;2.40;2.20;;;19.20;53.50;;;;;;5135321;27;20470;-86
2022/11/07 04:55:46;;;;;;;4.40;2.23;;;19.30;53.50;;;;;;5136296;27;20451;-86
2022/11/07 04:58:16;;;;;;;2.47;2.27;;;19.30;53.50;;;;;;5136013;27;20457;-85
2022/11/07 05:00:43;;;;;;;2.90;2.20;;;19.20;54.10;;;;;;5128847;27;20458;-86
2022/11/07 05:03:12;;;;;;;2.60;2.30;;;19.20;53.50;;;;;;5135090;27;20469;-85
2022/11/07 05:05:40;;;;;;;3.63;2.10;;;19.30;53.60;;;;;;5122552;27;20447;-83
2022/11/07 05:08:09;;;;;;;4.60;2.40;;;19.30;53.60;;;;;;5132038;27;20442;-84
2022/11/07 05:10:38;;;;;;;2.67;2.17;;;19.30;53.50;;;;;;5129965;27;20466;-85
2022/11/07 05:13:06;;;;;;;2.63;2.43;;;19.30;53.50;;;;;;5131321;27;20490;-85
2022/11/07 05:15:35;;;;;;;3.70;2.10;;;19.30;53.50;;;;;;5133038;27;20453;-85
2022/11/07 05:18:04;;;;;;;4.63;2.47;;;19.30;53.50;;;;;;5138537;27;20452;-85
2022/11/07 05:20:33;;;;;;;3.70;2.13;;;19.30;53.60;;;;;;5128468;27;20451;-85
2022/11/07 05:23:17;;;;;;;3.60;2.10;;;19.30;53.50;;;;;;5141689;27;20503;-88
2022/11/07 05:25:47;;;;;;;3.37;2.23;;;19.30;53.60;;;;;;5129219;27;20533;-86
2022/11/07 05:28:16;;;;;;;3.87;2.30;;;19.30;53.50;;;;;;5125309;27;20455;-85
2022/11/07 05:30:51;;;;;;;3.73;2.13;;;19.30;53.70;;;;;;5129907;27;20438;-86
2022/11/07 05:33:20;;;;;;;5.47;2.40;;;19.30;53.60;;;;;;5130969;27;20822;-86
2022/11/07 05:35:48;;;;;;;2.60;2.23;;;19.30;53.70;;;;;;5131104;27;20438;-85
2022/11/07 05:38:16;;;;;;;4.23;2.93;;;19.30;53.60;;;;;;5123889;27;20458;-85
2022/11/07 05:40:44;;;;;;;4.93;2.37;;;19.30;53.60;;;;;;5120865;27;20450;-85
2022/11/07 05:43:13;;;;;;;4.03;1.93;;;19.30;53.60;;;;;;5121081;27;20477;-85
2022/11/07 05:45:42;;;;;;;3.07;1.80;;;19.30;53.60;;;;;;5118785;27;20444;-85
2022/11/07 05:48:12;;;;;;;3.93;2.30;;;19.30;53.60;;;;;;5120092;27;20448;-85
2022/11/07 05:50:41;;;;;;;5.23;2.77;;;19.30;53.60;;;;;;5113059;28;20448;-84
2022/11/07 05:53:09;;;;;;;5.87;2.57;;;19.30;53.70;;;;;;5116504;27;20464;-84
2022/11/07 05:55:37;;;;;;;3.63;2.27;;;19.30;53.80;;;;;;5125870;27;20489;-85
2022/11/07 05:58:09;;;;;;;4.63;2.53;;;19.30;53.80;;;;;;5122822;27;20444;-85
2022/11/07 06:00:37;;;;;;;5.47;2.20;;;19.30;53.70;;;;;;5121889;27;20456;-85
2022/11/07 06:03:05;;;;;;;3.30;1.97;;;19.30;53.50;;;;;;5127497;27;20475;-85
2022/11/07 06:05:36;;;;;;;2.87;2.40;;;19.30;53.70;;;;;;5121895;27;20448;-85
2022/11/07 06:08:04;;;;;;;3.37;2.07;;;19.30;53.60;;;;;;5120593;27;20452;-85
2022/11/07 06:10:33;;;;;;;3.53;2.00;;;19.30;53.80;;;;;;5116808;27;20468;-85
2022/11/07 06:13:02;;;;;;;2.73;2.20;;;19.30;53.80;;;;;;5117177;27;20458;-85
2022/11/07 06:15:32;;;;;;;5.87;2.50;;;19.30;53.80;;;;;;5123122;27;20440;-85
2022/11/07 06:18:00;;;;;;;5.73;2.40;;;19.30;53.90;;;;;;5113964;27;20437;-85
2022/11/07 06:20:28;;;;;;;2.23;1.97;;;19.30;53.80;;;;;;5134728;27;20451;-85
2022/11/07 06:22:59;;;;;;;2.60;1.73;;;19.30;53.80;;;;;;5108669;27;20850;-85
2022/11/07 06:25:27;;;;;;;3.10;2.30;;;19.30;53.90;;;;;;5133601;27;20443;-85
2022/11/07 06:27:58;;;;;;;7.27;2.23;;;19.30;54.00;;;;;;5121782;28;20454;-86
2022/11/07 06:30:26;;;;;;;3.20;2.43;;;19.30;53.90;;;;;;5135776;27;20455;-85
2022/11/07 06:32:54;;;;;;;3.53;2.20;;;19.30;53.80;;;;;;5119451;27;20447;-86
2022/11/07 06:35:22;;;;;;;3.50;2.23;;;19.30;54.10;;;;;;5117593;27;20461;-87
2022/11/07 06:37:50;;;;;;;2.97;1.97;;;19.30;54.10;;;;;;5123056;28;20521;-85
2022/11/07 06:40:20;;;;;;;2.73;2.30;;;19.30;54.10;;;;;;5133451;27;20455;-85
2022/11/07 06:42:48;;;;;;;5.17;2.60;;;19.30;54.00;;;;;;5111781;28;20456;-85
2022/11/07 06:45:16;;;;;;;5.27;2.47;;;19.30;54.10;;;;;;5120924;28;20442;-85
2022/11/07 06:47:44;;;;;;;3.53;2.07;;;19.30;54.00;;;;;;5129882;27;20452;-85
2022/11/07 06:50:12;;;;;;;3.80;2.30;;;19.30;54.10;;;;;;5120005;27;20539;-84
2022/11/07 06:52:41;;;;;;;4.67;2.37;;;19.30;54.10;;;;;;5133061;27;20440;-88
2022/11/07 06:55:09;;;;;;;3.80;2.27;;;19.30;54.10;;;;;;5132458;27;20469;-86
2022/11/07 06:57:39;;;;;;;4.93;2.27;;;19.30;54.10;;;;;;5127827;27;20448;-85
2022/11/07 07:00:08;;;;;;;3.97;2.60;;;19.30;54.10;;;;;;5119166;27;20478;-86
2022/11/07 07:02:37;;;;;;;3.20;2.30;;;19.30;54.20;;;;;;5124220;27;20448;-84
2022/11/07 07:05:25;;;;;;;3.43;2.13;;;19.30;54.00;;;;;;5122853;27;20447;-86
2022/11/07 07:07:54;;;;;;;2.90;2.30;;;19.30;54.10;;;;;;5122173;27;20452;-85
2022/11/07 07:10:23;;;;;;;3.20;2.07;;;19.30;54.20;;;;;;5115699;27;20456;-84
2022/11/07 07:12:53;;;;;;;2.90;2.07;;;19.30;54.10;;;;;;5118269;28;20452;-85
2022/11/07 07:15:21;;;;;;;3.70;2.30;;;19.40;54.20;;;;;;5117141;27;20463;-84
2022/11/07 07:17:49;;;;;;;3.50;2.23;;;19.30;54.20;;;;;;5113555;27;20448;-84
2022/11/07 07:20:17;;;;;;;2.73;2.10;;;19.30;54.20;;;;;;5118981;27;20447;-85
2022/11/07 07:22:45;;;;;;;4.10;1.77;;;19.30;54.20;;;;;;5114382;27;20448;-83
2022/11/07 07:25:20;;;;;;;4.27;2.30;;;19.30;54.20;;;;;;5118546;27;20657;-84
2022/11/07 07:27:48;;;;;;;4.57;2.50;;;19.40;54.30;;;;;;5124465;27;20452;-82
2022/11/07 07:30:18;;;;;;;2.70;1.93;;;19.40;54.30;;;;;;5142462;27;20491;-82
2022/11/07 07:32:46;;;;;;;5.50;2.60;;;19.40;54.20;;;;;;5114305;28;20480;-82
2022/11/07 07:35:14;;;;;;;3.23;2.20;;;19.40;54.30;;;;;;5116826;28;20471;-82
2022/11/07 07:37:42;;;;;;;3.93;2.37;;;19.40;54.20;;;;;;5117686;28;20452;-83
2022/11/07 07:40:11;;;;;;;4.23;2.33;;;19.40;54.20;;;;;;5119969;27;20450;-83
2022/11/07 07:42:42;;;;;;;2.93;2.30;;;19.40;54.20;;;;;;5114899;28;20460;-82
2022/11/07 07:45:11;;;;;;;6.00;2.40;;;19.40;54.20;;;;;;5114664;28;20555;-82
2022/11/07 07:47:40;;;;;;;4.83;2.60;;;19.40;54.20;;;;;;5125098;27;20447;-81
2022/11/07 07:50:10;;;;;;;3.80;1.93;;;19.50;54.50;;;;;;5117580;28;20459;-82
2022/11/07 07:52:38;;;;;;;3.53;1.93;;;19.50;54.20;;;;;;5103177;28;20454;-83
2022/11/07 07:55:08;;;;;;;3.77;2.40;;;19.50;54.10;;;;;;5105346;28;20463;-82
2022/11/07 07:57:40;;;;;;;5.53;2.20;;;19.50;54.10;;;;;;5114333;27;20462;-83
2022/11/07 08:00:10;;;;;;;5.40;2.40;;;19.60;54.10;;;;;;5135629;27;20473;-82
2022/11/07 08:02:42;;;;;;;3.20;2.27;;;19.50;54.10;;;;;;5109151;28;20448;-82
2022/11/07 08:05:10;;;;;;;5.50;2.13;;;19.60;54.20;;;;;;5127125;27;20462;-82
2022/11/07 08:07:45;;;;;;;4.43;2.30;;;19.60;54.10;;;;;;5119292;28;20454;-82
2022/11/07 08:10:13;;;;;;;4.67;2.10;;;19.60;54.10;;;;;;5110806;28;20456;-81
2022/11/07 08:13:00;;;;;;;5.57;2.10;;;19.60;54.10;;;;;;5111013;28;20444;-81
2022/11/07 08:15:28;;;;;;;7.20;2.23;;;19.60;54.20;;;;;;5114701;28;20471;-82
2022/11/07 08:18:00;;;;;;;5.43;2.20;;;19.70;54.20;;;;;;5111923;28;20449;-82
2022/11/07 08:20:28;;;;;;;3.80;2.60;;;19.70;54.10;;;;;;5097010;28;20492;-83
2022/11/07 08:23:00;;;;;;;5.53;2.53;;;19.70;54.10;;;;;;5107841;27;20451;-84
2022/11/07 08:25:28;;;;;;;4.10;2.23;;;19.70;54.20;;;;;;5120338;28;20447;-82
2022/11/07 08:27:56;;;;;;;4.13;1.80;;;19.70;54.20;;;;;;5122296;28;20444;-83
2022/11/07 08:30:25;;;;;;;6.37;2.43;;;19.70;54.20;;;;;;5124241;28;20451;-83
2022/11/07 08:32:55;;;;;;;3.80;2.13;;;19.80;54.20;;;;;;5124161;28;20505;-83
2022/11/07 08:35:24;;;;;;;4.07;2.30;;;19.80;54.10;;;;;;5117742;28;20468;-82
2022/11/07 08:37:53;;;;;;;4.37;2.50;;;19.90;54.30;;;;;;5107071;28;20456;-82
2022/11/07 08:40:20;;;;;;;6.77;2.67;;;19.90;54.20;;;;;;5115223;28;20436;-83
2022/11/07 08:42:49;;;;;;;2.60;2.33;;;20.00;54.20;;;;;;5118585;28;20455;-83
2022/11/07 08:45:17;;;;;;;4.53;2.30;;;20.00;54.00;;;;;;5104176;28;20425;-83
2022/11/07 08:47:45;;;;;;;3.27;2.23;;;20.00;53.90;;;;;;5102793;28;20448;-83
2022/11/07 08:50:13;;;;;;;8.83;2.20;;;20.00;53.90;;;;;;5125033;28;20444;-82
2022/11/07 08:52:42;;;;;;;2.80;2.50;;;20.00;54.10;;;;;;5121708;28;20542;-81
2022/11/07 08:55:10;;;;;;;5.43;2.43;;;20.00;54.00;;;;;;5124219;28;20470;-84
2022/11/07 08:57:38;;;;;;;3.80;2.30;;;20.00;54.10;;;;;;5119337;28;20513;-83
2022/11/07 09:00:08;;;;;;;4.30;2.27;;;20.00;54.00;;;;;;5118017;28;20452;-83
2022/11/07 09:02:36;;;;;;;3.90;2.37;;;20.00;54.10;;;;;;5115703;28;20453;-82
2022/11/07 09:05:23;;;;;;;3.53;2.20;;;20.00;54.30;;;;;;5105098;28;20439;-84
2022/11/07 09:07:53;;;;;;;4.43;2.33;;;20.00;54.30;;;;;;5120821;28;20447;-82
2022/11/07 09:10:21;;;;;;;3.63;2.37;;;20.10;54.20;;;;;;5120897;28;20452;-83
2022/11/07 09:12:50;;;;;;;3.47;2.47;;;20.10;54.10;;;;;;5115820;28;20569;-83
2022/11/07 09:15:18;;;;;;;5.07;2.10;;;20.10;54.10;;;;;;5116544;28;20459;-83
2022/11/07 09:17:46;;;;;;;2.93;1.90;;;20.20;54.20;;;;;;5125507;27;20451;-83
2022/11/07 09:20:14;;;;;;;5.70;2.57;;;20.20;54.10;;;;;;5126203;27;20448;-82
2022/11/07 09:22:42;;;;;;;6.27;2.43;;;20.20;54.00;;;;;;5122054;27;20454;-83
2022/11/07 09:25:12;;;;;;;4.03;2.53;;;20.20;54.10;;;;;;5122909;27;20467;-81
2022/11/07 09:27:40;;;;;;;4.00;2.23;;;20.30;54.20;;;;;;5125111;27;20446;-86
2022/11/07 09:30:10;;;;;;;7.03;3.07;;;20.30;54.00;;;;;;5126310;27;20418;-84
2022/11/07 09:32:38;;;;;;;3.93;2.10;;;20.30;54.20;;;;;;5117653;27;20456;-84
2022/11/07 09:35:12;;;;;;;3.57;2.50;;;20.30;54.10;;;;;;5123398;27;20498;-84
2022/11/07 09:37:40;;;;;;;5.60;2.23;;;20.30;54.10;;;;;;5118932;27;20456;-84
2022/11/07 09:40:17;;;;;;;5.57;2.00;;;20.20;54.10;;;;;;5137126;27;20431;-82
2022/11/07 09:42:48;;;;;;;3.53;2.23;;;20.30;54.20;;;;;;5124897;27;20452;-84
2022/11/07 09:45:16;;;;;;;3.43;2.40;;;20.20;54.20;;;;;;5120385;28;20462;-83
2022/11/07 09:47:45;;;;;;;5.67;2.73;;;20.30;54.10;;;;;;5120973;28;20432;-83
2022/11/07 09:50:15;;;;;;;4.90;2.30;;;20.30;54.00;;;;;;5119823;28;20451;-81
2022/11/07 09:52:47;;;;;;;5.63;2.87;;;20.30;54.10;;;;;;5121345;28;20439;-82
2022/11/07 09:55:18;;;;;;;6.87;3.17;;;20.40;54.10;;;;;;5119924;28;20452;-82
2022/11/07 09:57:46;;;;;;;3.70;2.07;;;20.40;54.00;;;;;;5120449;28;20444;-81
2022/11/07 10:00:16;;;;;;;5.37;2.60;;;20.40;54.10;;;;;;5117852;28;20539;-82
2022/11/07 10:02:44;;;;;;;4.90;2.03;;;20.40;54.10;;;;;;5122290;28;20511;-80
2022/11/07 10:05:14;;;;;;;5.27;2.67;;;20.40;54.80;;;;;;5125164;27;20439;-83
2022/11/07 10:07:49;;;;;;;6.70;2.30;;;20.40;54.00;;;;;;5124492;28;20450;-82
2022/11/07 10:10:22;;;;;;;5.47;2.40;;;20.30;54.10;;;;;;5121529;28;20454;-84
2022/11/07 10:13:14;;;;;;;4.90;2.27;;;20.40;54.30;;;;;;5135352;27;20435;-86
2022/11/07 10:15:51;;;;;;;10.03;2.70;;;20.50;54.20;;;;;;5137647;28;20471;-84
2022/11/07 10:18:24;;;;;;;6.77;2.47;;;20.50;54.20;;;;;;5139187;28;20511;-82
2022/11/07 10:20:55;;;;;;;7.03;3.00;;;20.60;54.10;;;;;;5139796;27;20438;-80
2022/11/07 10:23:49;;;;;;;3.73;2.40;;;20.60;54.00;;;;;;5140219;28;20432;-84
2022/11/07 10:26:19;;;;;;;5.70;2.40;;;20.60;54.00;;;;;;5150479;27;20494;-87
2022/11/07 10:28:49;;;;;;;6.63;2.53;;;20.60;54.10;;;;;;5136460;27;20440;-85
2022/11/07 10:31:17;;;;;;;6.67;2.53;;;20.70;53.80;;;;;;5131192;27;20468;-84
2022/11/07 10:33:49;;;;;;;4.20;2.47;;;20.60;53.90;;;;;;5139276;28;20438;-86
2022/11/07 10:36:19;;;;;;;5.60;2.77;;;20.70;53.90;;;;;;5139264;28;20485;-84
2022/11/07 10:38:47;;;;;;;6.70;2.53;;;20.70;54.00;;;;;;5130067;28;20440;-84
2022/11/07 10:41:15;;;;;;;5.13;2.60;;;20.70;53.90;;;;;;5129113;27;20459;-83
2022/11/07 10:43:48;;;;;;;4.60;2.20;;;20.70;53.90;;;;;;5123582;28;20471;-84
2022/11/07 10:46:17;;;;;;;9.20;2.70;;;20.70;53.80;;;;;;5125212;28;20466;-82
2022/11/07 10:48:53;;;;;;;8.13;2.40;;;20.70;54.00;;;;;;5124893;27;20552;-83
2022/11/07 10:51:21;;;;;;;8.37;2.53;;;20.70;54.10;;;;;;5123785;27;20454;-82
2022/11/07 10:53:49;;;;;;;6.97;2.63;;;20.60;54.10;;;;;;5122806;27;20466;-82
2022/11/07 10:56:18;;;;;;;5.40;2.60;;;20.60;54.20;;;;;;5124418;27;20480;-83
2022/11/07 10:58:47;;;;;;;5.53;2.30;;;20.60;54.00;;;;;;5125852;27;20448;-83
2022/11/07 11:01:15;;;;;;;7.17;2.30;;;20.50;54.20;;;;;;5129265;28;20436;-82
2022/11/07 11:03:44;;;;;;;7.13;2.67;;;20.60;54.20;;;;;;5127858;28;20467;-83
2022/11/07 11:06:22;;;;;;;4.43;2.30;;;20.60;54.40;;;;;;5134264;27;20458;-84
2022/11/07 11:08:50;;;;;;;4.27;2.93;;;20.60;54.30;;;;;;5117329;27;20440;-83
2022/11/07 11:11:28;;;;;;;6.20;2.60;;;20.60;54.30;;;;;;5126203;28;20454;-81
2022/11/07 11:14:12;;;;;;;5.73;2.50;;;20.60;54.30;;;;;;5116482;28;20459;-83
2022/11/07 11:16:41;;;;;;;5.37;2.50;;;20.60;54.40;;;;;;5127403;27;20467;-84
2022/11/07 11:19:18;;;;;;;7.93;2.63;;;20.60;54.60;;;;;;5125467;27;20525;-83
2022/11/07 11:21:47;;;;;;;6.03;2.77;;;20.60;54.50;;;;;;5117751;28;20442;-83
2022/11/07 11:24:25;;;;;;;7.40;2.60;;;20.60;54.50;;;;;;5123622;28;20471;-84
2022/11/07 11:26:53;;;;;;;4.50;2.70;;;20.70;54.50;;;;;;5142004;27;20450;-83
2022/11/07 11:29:27;;;;;;;4.17;2.77;;;20.70;54.60;;;;;;5131613;27;20428;-83
2022/11/07 11:31:55;;;;;;;7.30;2.87;;;20.70;54.50;;;;;;5123877;28;20452;-84
2022/11/07 11:34:26;;;;;;;5.40;3.10;;;20.70;54.60;;;;;;5128107;28;20464;-83
2022/11/07 11:36:56;;;;;;;8.43;2.87;;;20.70;54.60;;;;;;5127664;28;20508;-84
2022/11/07 11:39:26;;;;;;;6.17;3.07;;;20.70;54.60;;;;;;5126068;28;20871;-83
2022/11/07 11:41:55;;;;;;;6.40;2.90;;;20.70;54.70;;;;;;5129436;28;20424;-83
2022/11/07 11:44:28;;;;;;;8.20;2.97;;;20.70;54.60;;;;;;5127856;28;20482;-84
2022/11/07 11:47:00;;;;;;;7.10;2.80;;;20.60;54.60;;;;;;5139374;27;20441;-84
2022/11/07 11:49:30;;;;;;;4.17;2.77;;;20.60;54.70;;;;;;5124082;27;20450;-84
2022/11/07 11:52:00;;;;;;;10.97;3.53;;;20.60;55.00;;;;;;5118734;28;20506;-83
2022/11/07 11:54:28;;;;;;;4.90;2.83;;;20.60;54.90;;;;;;5106887;28;20456;-84
2022/11/07 11:56:58;;;;;;;7.77;3.23;;;20.60;54.90;;;;;;5119271;28;20464;-84
2022/11/07 11:59:48;;;;;;;5.07;3.00;;;20.70;54.90;;;;;;5124753;28;20447;-84
2022/11/07 12:02:33;;;;;;;7.73;3.10;;;20.70;54.90;;;;;;5122850;28;20447;-83
2022/11/07 12:05:04;;;;;;;7.47;2.93;;;20.70;54.80;;;;;;5117128;28;21058;-83
2022/11/07 12:07:45;;;;;;;5.70;2.90;;;20.70;54.80;;;;;;5121975;28;20437;-83
2022/11/07 12:10:16;;;;;;;6.07;2.20;;;20.70;54.90;;;;;;5133286;27;20469;-83
2022/11/07 12:12:51;;;;;;;7.30;2.90;;;20.70;54.80;;;;;;5121594;28;20467;-81
2022/11/07 12:15:29;;;;;;;6.53;3.13;;;20.80;55.00;;;;;;5117803;28;20447;-82
2022/11/07 12:17:59;;;;;;;8.87;3.50;;;20.90;55.10;;;;;;5126007;28;20486;-81
2022/11/07 12:20:28;;;;;;;7.33;3.30;;;20.90;54.80;;;;;;5116688;28;20444;-79
2022/11/07 12:23:04;;;;;;;8.33;3.40;;;20.90;54.60;;;;;;5116771;28;20426;-81
2022/11/07 12:25:34;;;;;;;8.87;3.43;;;20.90;54.70;;;;;;5117787;28;20440;-81
2022/11/07 12:28:24;;;;;;;5.70;3.20;;;20.80;54.90;;;;;;5117254;28;20450;-82
2022/11/07 12:30:58;;;;;;;5.67;3.10;;;20.90;55.00;;;;;;5116075;28;20444;-81
2022/11/07 12:33:29;;;;;;;7.90;3.70;;;20.80;54.90;;;;;;5109699;28;20477;-82
2022/11/07 12:36:00;;;;;;;5.90;3.40;;;20.80;55.00;;;;;;5121831;28;20527;-81
2022/11/07 12:39:15;;;;;;;7.13;3.37;;;20.80;55.10;;;;;;5123785;28;20483;-82
2022/11/07 12:41:45;;;;;;;7.93;3.47;;;20.90;55.00;;;;;;5117281;28;20440;-82
2022/11/07 12:44:24;;;;;;;13.83;3.43;;;20.80;55.10;;;;;;5117995;28;20468;-82
2022/11/07 12:46:55;;;;;;;5.17;3.40;;;20.80;55.20;;;;;;5117570;28;20431;-83
2022/11/07 12:49:48;;;;;;;7.93;3.33;;;20.90;55.10;;;;;;5117183;28;20420;-83
2022/11/07 12:52:39;;;;;;;5.20;3.10;;;21.00;55.10;;;;;;5120329;27;20459;-82
2022/11/07 12:55:15;;;;;;;4.97;3.20;;;21.00;55.00;;;;;;5109265;28;20472;-82
2022/11/07 12:57:43;;;;;;;8.97;3.40;;;21.10;55.10;;;;;;5121460;28;20464;-82
2022/11/07 13:00:17;;;;;;;7.67;3.67;;;21.20;55.10;;;;;;5122610;28;20818;-82
2022/11/07 13:03:14;;;;;;;5.93;3.60;;;21.20;54.80;;;;;;5120471;28;20444;-82
2022/11/07 13:05:49;;;;;;;6.70;3.27;;;21.30;54.70;;;;;;5108360;27;20504;-82
2022/11/07 13:08:17;;;;;;;7.87;3.47;;;21.30;54.70;;;;;;5104656;28;20406;-80
2022/11/07 13:10:49;;;;;;;6.90;2.97;;;21.40;54.60;;;;;;5115718;28;20464;-82
2022/11/07 13:13:19;;;;;;;6.30;3.10;;;21.50;54.50;;;;;;5119465;28;20460;-82